createdAt,value
2023-01-02T00:01:06.339Z,65.30
2023-01-02T00:03:33.748Z,70.45
2023-01-02T00:06:08.657Z,66.38
2023-01-02T00:08:35.947Z,64.80
2023-01-02T00:11:03.228Z,65.75
2023-01-02T00:13:33.433Z,67.15
2023-01-02T00:16:00.784Z,66.47
2023-01-02T00:18:29.848Z,68.55
2023-01-02T00:20:57.192Z,66.50
2023-01-02T00:23:24.396Z,65.40
2023-01-02T00:25:51.735Z,67.68
2023-01-02T00:28:18.940Z,74.47
2023-01-02T00:30:49.226Z,70.25
2023-01-02T00:33:17.595Z,76.97
2023-01-02T00:35:47.694Z,74.50
2023-01-02T00:38:15.417Z,74.60
2023-01-02T00:40:48.387Z,83.18
2023-01-02T00:43:17.893Z,83.03
2023-01-02T00:45:48.977Z,91.80
2023-01-02T00:48:16.612Z,81.05
2023-01-02T00:50:44.975Z,96.63
2023-01-02T00:53:18.345Z,86.22
2023-01-02T00:55:46.568Z,92.32
2023-01-02T00:58:14.406Z,87.90
2023-01-02T01:00:47.445Z,91.75
2023-01-02T01:03:15.045Z,92.22
2023-01-02T01:05:42.375Z,96.82
2023-01-02T01:08:09.985Z,93.68
2023-01-02T01:10:38.328Z,91.15
2023-01-02T01:13:06.415Z,98.25
2023-01-02T01:15:34.875Z,97.43
2023-01-02T01:18:02.241Z,106.80
2023-01-02T01:20:29.735Z,103.15
2023-01-02T01:23:00.462Z,109.32
2023-01-02T01:25:27.724Z,112.57
2023-01-02T01:27:55.096Z,110.03
2023-01-02T01:30:22.472Z,104.82
2023-01-02T01:32:52.759Z,108.90
2023-01-02T01:35:22.732Z,109.43
2023-01-02T01:37:50.467Z,117.10
2023-01-02T01:40:20.771Z,124.78
2023-01-02T01:42:50.250Z,122.45
2023-01-02T01:45:18.885Z,110.50
2023-01-02T01:47:52.419Z,109.55
2023-01-02T01:50:25.674Z,111.20
2023-01-02T01:52:59.147Z,115.38
2023-01-02T01:55:32.168Z,120.45
2023-01-02T01:58:16.701Z,112.85
2023-01-02T02:00:44.464Z,117.63
2023-01-02T02:03:15.713Z,125.93
2023-01-02T02:05:44.251Z,134.40
2023-01-02T02:08:18.299Z,129.57
2023-01-02T02:10:49.650Z,117.40
2023-01-02T02:13:17.882Z,126.22
2023-01-02T02:16:06.803Z,119.50
2023-01-02T02:18:49.472Z,146.90
2023-01-02T02:21:42.520Z,110.55
2023-01-02T02:24:28.503Z,112.75
2023-01-02T02:27:18.670Z,112.90
2023-01-02T02:30:12.302Z,106.03
2023-01-02T02:32:57.814Z,104.38
2023-01-02T02:35:54.493Z,87.88
2023-01-02T02:38:59.842Z,92.22
2023-01-02T02:41:34.765Z,98.53
2023-01-02T02:44:20.506Z,99.07
2023-01-02T02:47:06.285Z,93.20
2023-01-02T02:50:02.748Z,89.93
2023-01-02T02:52:36.410Z,98.13
2023-01-02T02:55:11.144Z,91.07
2023-01-02T02:57:40.550Z,89.15
2023-01-02T03:00:14.729Z,89.93
2023-01-02T03:02:42.099Z,83.57
2023-01-02T03:05:16.687Z,80.43
2023-01-02T03:08:01.754Z,83.28
2023-01-02T03:10:58.091Z,91.28
2023-01-02T03:13:44.195Z,82.40
2023-01-02T03:16:14.521Z,85.45
2023-01-02T03:18:52.524Z,80.78
2023-01-02T03:21:40.957Z,78.63
2023-01-02T03:24:13.882Z,68.32
2023-01-02T03:29:18.342Z,73.38
2023-01-02T03:31:51.216Z,82.25
2023-01-02T03:36:58.178Z,72.78
2023-01-02T03:39:29.388Z,82.40
2023-01-02T03:42:05.013Z,70.95
2023-01-02T03:44:40.689Z,74.40
2023-01-02T03:47:26.912Z,73.90
2023-01-02T03:49:57.072Z,73.72
2023-01-02T03:52:26.229Z,73.32
2023-01-02T03:54:55.408Z,75.07
2023-01-02T03:57:37.093Z,74.95
2023-01-02T04:00:14.828Z,75.38
2023-01-02T04:03:10.970Z,68.45
2023-01-02T04:06:04.271Z,70.47
2023-01-02T04:09:00.283Z,69.63
2023-01-02T04:11:30.363Z,63.38
2023-01-02T04:16:38.919Z,60.08
2023-01-02T04:19:13.078Z,67.97
2023-01-02T04:21:43.123Z,60.53
2023-01-02T04:24:18.966Z,59.65
2023-01-02T04:26:51.857Z,60.60
2023-01-02T04:31:56.280Z,61.58
2023-01-02T04:34:26.582Z,55.05
2023-01-02T04:36:59.344Z,56.78
2023-01-02T04:39:30.793Z,55.20
2023-01-02T04:41:58.184Z,49.60
2023-01-02T04:44:25.571Z,59.85
2023-01-02T04:46:53.006Z,59.15
2023-01-02T04:49:20.516Z,51.53
2023-01-02T04:51:48.046Z,57.83
2023-01-02T04:54:15.575Z,50.40
2023-01-02T04:56:45.125Z,55.15
2023-01-02T04:59:14.875Z,56.25
2023-01-02T05:01:43.053Z,64.85
2023-01-02T05:04:13.500Z,51.35
2023-01-02T05:06:41.075Z,62.92
2023-01-02T05:09:11.348Z,49.97
2023-01-02T05:11:38.718Z,60.10
2023-01-02T05:14:07.780Z,69.85
2023-01-02T05:16:35.345Z,50.78
2023-01-02T05:19:02.812Z,48.42
2023-01-02T05:21:48.350Z,57.25
2023-01-02T05:24:15.814Z,53.63
2023-01-02T05:26:43.578Z,47.92
2023-01-02T05:29:11.022Z,46.38
2023-01-02T05:31:38.408Z,46.15
2023-01-02T05:34:05.892Z,52.70
2023-01-02T05:36:33.296Z,51.97
2023-01-02T05:39:01.926Z,42.83
2023-01-02T05:41:29.255Z,55.20
2023-01-02T05:43:58.539Z,46.70
2023-01-02T05:46:25.920Z,47.53
2023-01-02T05:48:53.367Z,46.05
2023-01-02T05:51:32.308Z,42.63
2023-01-02T05:53:59.784Z,48.63
2023-01-02T05:56:28.824Z,48.10
2023-01-02T05:58:57.020Z,47.03
2023-01-02T06:01:29.881Z,43.58
2023-01-02T06:04:02.930Z,40.92
2023-01-02T06:06:32.910Z,39.78
2023-01-02T06:09:03.536Z,46.33
2023-01-02T06:11:31.915Z,69.65
2023-01-02T06:14:05.751Z,43.95
2023-01-02T06:16:36.257Z,60.90
2023-01-02T06:19:08.790Z,50.05
2023-01-02T06:21:36.217Z,46.17
2023-01-02T06:24:03.671Z,51.13
2023-01-02T06:26:34.830Z,39.53
2023-01-02T06:29:03.867Z,55.13
2023-01-02T06:31:34.371Z,54.20
2023-01-02T06:34:04.771Z,43.50
2023-01-02T06:36:34.683Z,47.83
2023-01-02T06:39:02.403Z,62.72
2023-01-02T06:41:29.945Z,42.38
2023-01-02T06:43:57.434Z,54.53
2023-01-02T06:46:25.347Z,45.05
2023-01-02T06:48:53.016Z,46.13
2023-01-02T06:51:22.722Z,44.10
2023-01-02T06:53:50.267Z,39.85
2023-01-02T06:56:19.863Z,45.20
2023-01-02T06:58:48.114Z,38.90
2023-01-02T07:01:19.986Z,49.10
2023-01-02T07:03:47.524Z,154.40
2023-01-02T07:06:17.517Z,154.13
2023-01-02T07:08:50.395Z,118.93
2023-01-02T07:11:21.053Z,41.42
2023-01-02T07:13:51.918Z,53.65
2023-01-02T07:16:21.046Z,39.95
2023-01-02T07:18:49.506Z,42.97
2023-01-02T07:21:18.415Z,41.25
2023-01-02T07:23:46.302Z,43.13
2023-01-02T07:26:14.259Z,46.80
2023-01-02T07:28:42.169Z,41.03
2023-01-02T07:31:13.824Z,46.30
2023-01-02T07:33:41.711Z,40.47
2023-01-02T07:36:13.362Z,37.80
2023-01-02T07:38:40.823Z,42.05
2023-01-02T07:41:19.574Z,43.20
2023-01-02T07:43:51.006Z,40.63
2023-01-02T07:46:19.860Z,35.40
2023-01-02T07:48:48.502Z,36.28
2023-01-02T07:51:19.689Z,38.60
2023-01-02T07:53:50.084Z,40.95
2023-01-02T07:56:17.358Z,42.47
2023-01-02T07:58:44.780Z,43.33
2023-01-02T08:01:13.469Z,38.17
2023-01-02T08:03:41.534Z,42.97
2023-01-02T08:06:16.776Z,41.45
2023-01-02T08:08:44.574Z,42.80
2023-01-02T08:11:17.758Z,42.72
2023-01-02T08:13:45.117Z,34.83
2023-01-02T08:16:18.422Z,43.08
2023-01-02T08:18:49.137Z,32.20
2023-01-02T08:21:16.674Z,34.20
2023-01-02T08:23:44.194Z,39.50
2023-01-02T08:26:16.870Z,35.10
2023-01-02T08:28:44.795Z,36.60
2023-01-02T08:31:14.486Z,36.70
2023-01-02T08:33:45.130Z,35.08
2023-01-02T08:36:14.698Z,37.42
2023-01-02T08:38:42.428Z,36.10
2023-01-02T08:41:09.555Z,37.80
2023-01-02T08:43:37.646Z,34.53
2023-01-02T08:46:06.666Z,38.25
2023-01-02T08:48:35.023Z,40.95
2023-01-02T08:51:04.154Z,44.90
2023-01-02T08:53:31.438Z,40.47
2023-01-02T08:56:21.119Z,39.47
2023-01-02T08:58:56.338Z,39.15
2023-01-02T09:01:25.297Z,38.10
2023-01-02T09:03:52.852Z,44.20
2023-01-02T09:06:22.267Z,42.17
2023-01-02T09:08:55.619Z,44.30
2023-01-02T09:11:28.519Z,39.60
2023-01-02T09:13:57.300Z,39.80
2023-01-02T09:16:25.173Z,41.55
2023-01-02T09:18:53.361Z,46.38
2023-01-02T09:21:20.866Z,42.92
2023-01-02T09:23:48.334Z,35.63
2023-01-02T09:26:15.730Z,38.53
2023-01-02T09:28:43.173Z,38.88
2023-01-02T09:31:15.957Z,37.42
2023-01-02T09:36:13.137Z,34.67
2023-01-02T09:38:40.625Z,36.80
2023-01-02T09:41:35.630Z,40.72
2023-01-02T09:44:22.433Z,39.47
2023-01-02T09:46:54.614Z,43.47
2023-01-02T09:49:42.576Z,41.90
2023-01-02T09:52:24.403Z,43.75
2023-01-02T09:54:51.713Z,46.83
2023-01-02T09:57:28.254Z,39.40
2023-01-02T10:00:04.261Z,44.83
2023-01-02T10:03:08.034Z,42.10
2023-01-02T10:08:14.965Z,37.80
2023-01-02T10:11:05.895Z,45.38
2023-01-02T10:16:41.323Z,44.90
2023-01-02T10:19:37.706Z,44.28
2023-01-02T10:22:08.242Z,48.45
2023-01-02T10:24:35.344Z,47.63
2023-01-02T10:27:06.446Z,38.33
2023-01-02T10:29:45.052Z,43.28
2023-01-02T10:32:23.255Z,47.67
2023-01-02T10:35:09.640Z,52.65
2023-01-02T10:37:37.218Z,41.67
2023-01-02T10:40:05.458Z,44.05
2023-01-02T10:42:34.179Z,45.08
2023-01-02T10:45:01.706Z,47.80
2023-01-02T10:47:35.932Z,43.42
2023-01-02T10:50:06.985Z,41.20
2023-01-02T10:53:05.155Z,43.88
2023-01-02T10:55:39.448Z,41.60
2023-01-02T10:58:23.051Z,39.53
2023-01-02T11:01:18.636Z,39.70
2023-01-02T11:04:11.203Z,41.20
2023-01-02T11:07:23.583Z,36.55
2023-01-02T11:09:57.679Z,38.25
2023-01-02T11:12:27.464Z,38.17
2023-01-02T11:15:11.838Z,42.30
2023-01-02T11:17:43.702Z,36.28
2023-01-02T11:20:34.362Z,40.78
2023-01-02T11:23:04.188Z,31.00
2023-01-02T11:25:41.111Z,33.10
2023-01-02T11:28:16.981Z,29.27
2023-01-02T11:30:50.721Z,32.38
2023-01-02T11:33:21.584Z,33.10
2023-01-02T11:35:52.243Z,32.00
2023-01-02T11:38:29.946Z,31.85
2023-01-02T11:41:01.389Z,27.05
2023-01-02T11:43:49.165Z,34.25
2023-01-02T11:46:37.828Z,29.67
2023-01-02T11:49:11.728Z,26.70
2023-01-02T11:51:41.471Z,25.27
2023-01-02T11:54:23.656Z,25.63
2023-01-02T11:56:52.259Z,29.52
2023-01-02T11:59:28.487Z,25.88
2023-01-02T12:02:00.953Z,26.50
2023-01-02T12:04:28.857Z,23.35
2023-01-02T12:07:11.118Z,23.38
2023-01-02T12:09:40.973Z,21.23
2023-01-02T12:12:35.267Z,21.80
2023-01-02T12:15:08.215Z,20.85
2023-01-02T12:17:47.175Z,26.80
2023-01-02T12:20:17.758Z,22.85
2023-01-02T12:23:06.328Z,21.42
2023-01-02T12:25:58.085Z,38.40
2023-01-02T12:29:46.147Z,36.25
2023-01-02T12:32:30.032Z,39.45
2023-01-02T12:35:41.525Z,53.50
2023-01-02T12:38:10.908Z,49.20
2023-01-02T12:41:05.663Z,41.90
2023-01-02T12:44:08.412Z,42.50
2023-01-02T12:47:13.445Z,41.70
2023-01-02T12:50:07.807Z,44.92
2023-01-02T12:52:41.191Z,46.42
2023-01-02T12:55:45.856Z,35.75
2023-01-02T12:58:37.848Z,40.08
2023-01-02T13:01:36.799Z,44.85
2023-01-02T13:04:20.317Z,41.88
2023-01-02T13:07:03.672Z,42.83
2023-01-02T13:09:40.907Z,48.25
2023-01-02T13:12:11.426Z,44.78
2023-01-02T13:14:41.457Z,43.83
2023-01-02T13:17:25.927Z,44.78
2023-01-02T13:20:35.162Z,41.75
2023-01-02T13:23:22.787Z,46.50
2023-01-02T13:26:24.912Z,41.45
2023-01-02T13:28:55.306Z,49.78
2023-01-02T13:34:31.452Z,46.50
2023-01-02T13:37:12.902Z,57.28
2023-01-02T13:39:39.884Z,51.63
2023-01-02T13:42:28.393Z,54.90
2023-01-02T13:44:59.336Z,189.85
2023-01-02T13:47:34.337Z,103.38
2023-01-02T13:50:30.151Z,144.13
2023-01-02T13:53:06.441Z,105.60
2023-01-02T13:55:40.826Z,62.42
2023-01-02T13:58:18.158Z,71.78
2023-01-02T14:00:56.136Z,57.60
2023-01-02T14:03:23.865Z,59.17
2023-01-02T14:05:59.802Z,45.90
2023-01-02T14:09:05.608Z,47.92
2023-01-02T14:11:56.841Z,47.95
2023-01-02T14:14:29.931Z,42.08
2023-01-02T14:17:15.863Z,43.92
2023-01-02T14:19:44.400Z,49.97
2023-01-02T14:22:16.707Z,52.88
2023-01-02T14:24:49.295Z,47.95
2023-01-02T14:27:16.659Z,41.63
2023-01-02T14:29:56.621Z,50.42
2023-01-02T14:32:23.823Z,51.75
2023-01-02T14:34:56.786Z,76.35
2023-01-02T14:37:43.744Z,82.25
2023-01-02T14:40:23.288Z,53.28
2023-01-02T14:43:16.088Z,49.90
2023-01-02T14:45:47.794Z,56.05
2023-01-02T14:48:28.636Z,46.92
2023-01-02T14:51:09.197Z,48.83
2023-01-02T14:53:42.416Z,52.95
2023-01-02T14:56:16.247Z,47.55
2023-01-02T14:58:48.807Z,49.03
2023-01-02T15:01:41.641Z,44.13
2023-01-02T15:04:19.467Z,45.55
2023-01-02T15:07:10.575Z,43.65
2023-01-02T15:09:43.968Z,41.58
2023-01-02T15:12:43.502Z,46.47
2023-01-02T15:15:19.433Z,42.55
2023-01-02T15:17:48.740Z,49.72
2023-01-02T15:20:25.676Z,58.30
2023-01-02T15:22:54.584Z,48.75
2023-01-02T15:25:41.569Z,55.30
2023-01-02T15:28:27.414Z,50.60
2023-01-02T15:31:04.959Z,60.60
2023-01-02T15:33:34.022Z,58.78
2023-01-02T15:36:14.146Z,63.78
2023-01-02T15:38:42.953Z,55.72
2023-01-02T15:41:18.106Z,51.85
2023-01-02T15:44:05.033Z,62.67
2023-01-02T15:46:32.425Z,58.78
2023-01-02T15:49:00.414Z,61.33
2023-01-02T15:51:40.260Z,69.50
2023-01-02T15:54:18.829Z,68.82
2023-01-02T15:56:46.021Z,84.75
2023-01-02T15:59:33.905Z,97.10
2023-01-02T16:02:02.836Z,77.70
2023-01-02T16:04:32.795Z,94.03
2023-01-02T16:07:15.144Z,83.47
2023-01-02T16:09:52.555Z,80.83
2023-01-02T16:12:22.083Z,81.07
2023-01-02T16:14:55.571Z,87.43
2023-01-02T16:17:27.717Z,84.50
2023-01-02T16:20:00.098Z,83.78
2023-01-02T16:22:43.895Z,81.63
2023-01-02T16:25:20.357Z,80.38
2023-01-02T16:27:59.158Z,77.35
2023-01-02T16:30:32.769Z,84.15
2023-01-02T16:33:24.631Z,79.55
2023-01-02T16:36:00.736Z,80.00
2023-01-02T16:38:29.134Z,192.18
2023-01-02T16:41:08.629Z,110.28
2023-01-02T16:43:43.126Z,73.88
2023-01-02T16:46:15.256Z,105.65
2023-01-02T16:48:44.016Z,93.68
2023-01-02T16:51:14.915Z,92.85
2023-01-02T16:53:43.937Z,83.93
2023-01-02T16:56:12.347Z,93.10
2023-01-02T16:58:39.913Z,129.98
2023-01-02T17:01:11.944Z,135.10
2023-01-02T17:03:39.296Z,99.03
2023-01-02T17:06:19.177Z,96.28
2023-01-02T17:08:46.283Z,93.85
2023-01-02T17:11:17.065Z,98.72
2023-01-02T17:13:44.581Z,114.22
2023-01-02T17:16:11.882Z,117.55
2023-01-02T17:18:39.142Z,114.65
2023-01-02T17:21:06.363Z,101.32
2023-01-02T17:23:33.748Z,98.38
2023-01-02T17:26:04.050Z,95.10
2023-01-02T17:28:31.385Z,102.57
2023-01-02T17:30:58.790Z,100.70
2023-01-02T17:33:25.990Z,91.95
2023-01-02T17:35:53.210Z,101.32
2023-01-02T17:38:20.651Z,84.47
2023-01-02T17:40:47.726Z,86.20
2023-01-02T17:43:17.969Z,98.95
2023-01-02T17:45:45.191Z,88.05
2023-01-02T17:48:15.278Z,109.43
2023-01-02T17:50:46.193Z,108.60
2023-01-02T17:53:13.350Z,103.57
2023-01-02T17:55:40.776Z,92.68
2023-01-02T17:58:08.042Z,101.95
2023-01-02T18:00:35.247Z,108.50
2023-01-02T18:03:02.645Z,114.32
2023-01-02T18:05:30.090Z,111.50
2023-01-02T18:07:57.372Z,113.88
2023-01-02T18:10:29.192Z,110.20
2023-01-02T18:12:59.968Z,117.45
2023-01-02T18:15:28.615Z,128.68
2023-01-02T18:17:56.336Z,120.90
2023-01-02T18:20:23.884Z,102.75
2023-01-02T18:22:51.288Z,115.93
2023-01-02T18:25:27.574Z,111.63
2023-01-02T18:28:23.533Z,112.20
2023-01-02T18:30:59.704Z,117.63
2023-01-02T18:33:28.745Z,112.90
2023-01-02T18:36:02.809Z,97.68
2023-01-02T18:38:38.235Z,94.03
2023-01-02T18:41:18.802Z,107.45
2023-01-02T18:43:48.687Z,89.15
2023-01-02T18:46:22.340Z,88.68
2023-01-02T18:48:50.031Z,85.47
2023-01-02T18:51:24.367Z,87.97
2023-01-02T18:53:58.830Z,85.82
2023-01-02T18:56:31.236Z,91.38
2023-01-02T18:59:30.549Z,104.60
2023-01-02T19:02:03.101Z,82.70
2023-01-02T19:04:37.232Z,99.80
2023-01-02T19:07:33.360Z,83.78
2023-01-02T19:10:09.958Z,99.53
2023-01-02T19:13:07.636Z,91.40
2023-01-02T19:15:46.703Z,76.47
2023-01-02T19:18:33.921Z,82.00
2023-01-02T19:21:13.367Z,85.40
2023-01-02T19:24:05.671Z,80.35
2023-01-02T19:26:33.411Z,82.13
2023-01-02T19:29:09.800Z,84.05
2023-01-02T19:31:37.251Z,82.45
2023-01-02T19:34:38.705Z,89.50
2023-01-02T19:37:12.641Z,83.50
2023-01-02T19:39:53.120Z,109.43
2023-01-02T19:42:23.725Z,92.13
2023-01-02T19:44:59.449Z,77.28
2023-01-02T19:47:29.588Z,81.68
2023-01-02T19:49:57.566Z,83.90
2023-01-02T19:52:28.356Z,82.10
2023-01-02T19:54:56.854Z,80.85
2023-01-02T19:57:25.959Z,83.88
2023-01-02T19:59:56.268Z,74.45
2023-01-02T20:02:25.640Z,123.78
2023-01-02T20:04:56.047Z,104.55
2023-01-02T20:07:27.336Z,90.05
2023-01-02T20:09:55.167Z,131.23
2023-01-02T20:12:38.519Z,86.90
2023-01-02T20:15:27.672Z,87.28
2023-01-02T20:17:55.844Z,118.00
2023-01-02T20:20:26.679Z,88.55
2023-01-02T20:22:55.594Z,94.35
2023-01-02T20:25:26.400Z,91.30
2023-01-02T20:27:56.553Z,102.20
2023-01-02T20:30:26.311Z,100.28
2023-01-02T20:32:55.484Z,99.88
2023-01-02T20:35:23.664Z,101.43
2023-01-02T20:37:51.966Z,112.57
2023-01-02T20:40:20.525Z,124.05
2023-01-02T20:42:50.326Z,88.53
2023-01-02T20:45:18.597Z,89.97
2023-01-02T20:47:47.985Z,93.88
2023-01-02T20:50:16.519Z,89.53
2023-01-02T20:52:45.882Z,89.07
2023-01-02T20:55:14.193Z,84.55
2023-01-02T20:57:42.421Z,92.55
2023-01-02T21:00:31.629Z,92.63
2023-01-02T21:02:59.816Z,106.20
2023-01-02T21:05:27.766Z,97.05
2023-01-02T21:07:58.098Z,93.80
2023-01-02T21:10:26.171Z,91.40
2023-01-02T21:13:14.742Z,103.32
2023-01-02T21:15:46.442Z,84.18
2023-01-02T21:18:26.527Z,90.30
2023-01-02T21:21:05.897Z,94.18
2023-01-02T21:23:37.218Z,91.93
2023-01-02T21:26:07.063Z,92.25
2023-01-02T21:28:35.040Z,101.03
2023-01-02T21:31:02.996Z,98.57
2023-01-02T21:33:30.698Z,97.30
2023-01-02T21:36:00.205Z,96.05
2023-01-02T21:38:28.466Z,111.43
2023-01-02T21:41:16.496Z,96.22
2023-01-02T21:43:43.671Z,107.18
2023-01-02T21:46:11.251Z,90.78
2023-01-02T21:48:38.581Z,94.72
2023-01-02T21:51:06.833Z,87.30
2023-01-02T21:53:35.009Z,87.25
2023-01-02T21:56:02.519Z,102.30
2023-01-02T21:58:29.710Z,86.82
2023-01-02T22:00:57.142Z,85.60
2023-01-02T22:03:24.481Z,94.75
2023-01-02T22:05:51.911Z,82.57
2023-01-02T22:08:19.089Z,88.60
2023-01-02T22:10:46.221Z,83.05
2023-01-02T22:13:13.334Z,102.00
2023-01-02T22:15:42.807Z,92.35
2023-01-02T22:18:13.374Z,96.75
2023-01-02T22:20:40.748Z,104.93
2023-01-02T22:23:07.945Z,110.15
2023-01-02T22:25:35.861Z,85.90
2023-01-02T22:28:02.991Z,87.68
2023-01-02T22:30:34.560Z,89.60
2023-01-02T22:33:03.095Z,89.05
2023-01-02T22:35:30.365Z,95.70
2023-01-02T22:37:59.715Z,86.95
2023-01-02T22:40:29.014Z,94.55
2023-01-02T22:43:02.884Z,87.13
2023-01-02T22:45:35.720Z,86.22
2023-01-02T22:48:06.591Z,93.28
2023-01-02T22:50:44.643Z,84.18
2023-01-02T22:53:20.852Z,103.03
2023-01-02T22:55:48.810Z,90.13
2023-01-02T22:58:16.302Z,114.22
2023-01-02T23:00:44.479Z,102.25
2023-01-02T23:03:16.187Z,94.13
2023-01-02T23:05:43.527Z,95.78
2023-01-02T23:08:10.713Z,140.93
2023-01-02T23:10:37.982Z,85.25
2023-01-02T23:13:05.101Z,85.43
2023-01-02T23:15:32.192Z,77.32
2023-01-02T23:18:17.581Z,84.68
2023-01-02T23:20:47.513Z,74.03
2023-01-02T23:23:14.647Z,77.05
2023-01-02T23:25:43.645Z,87.78
2023-01-02T23:28:20.489Z,89.43
2023-01-02T23:30:58.090Z,86.57
2023-01-02T23:33:25.272Z,76.22
2023-01-02T23:35:52.847Z,74.50
2023-01-02T23:38:20.348Z,85.97
2023-01-02T23:40:47.480Z,81.93
2023-01-02T23:43:14.726Z,79.15
2023-01-02T23:45:42.176Z,82.97
2023-01-02T23:48:09.292Z,75.05
2023-01-02T23:50:36.402Z,105.45
2023-01-02T23:53:03.537Z,89.30
2023-01-02T23:55:30.725Z,89.18
2023-01-02T23:57:57.920Z,84.65
